createdAt,value
2023-02-04T00:00:00.417Z,10.3
2023-02-04T00:05:00.351Z,10.3
2023-02-04T00:10:00.402Z,9.7
2023-02-04T00:15:00.344Z,9.7
2023-02-04T00:20:00.364Z,9.9
2023-02-04T00:25:00.368Z,9.9
2023-02-04T00:30:00.370Z,11.2
2023-02-04T00:35:00.324Z,11.2
2023-02-04T00:40:00.347Z,12.4
2023-02-04T00:45:00.356Z,12.4
2023-02-04T00:50:00.374Z,11.5
2023-02-04T00:55:00.378Z,11.5
2023-02-04T01:00:00.622Z,11.3
2023-02-04T01:05:00.443Z,11.3
2023-02-04T01:10:00.388Z,11.1
2023-02-04T01:15:00.379Z,11.1
2023-02-04T01:20:00.434Z,8.3
2023-02-04T01:25:00.359Z,8.3
2023-02-04T01:30:00.424Z,9.0
2023-02-04T01:35:00.362Z,9.0
2023-02-04T01:40:00.413Z,9.3
2023-02-04T01:45:00.409Z,9.3
2023-02-04T01:50:00.360Z,7.7
2023-02-04T01:55:00.366Z,7.7
2023-02-04T02:00:00.374Z,6.3
2023-02-04T02:05:00.431Z,6.3
2023-02-04T02:10:00.583Z,5.8
2023-02-04T02:15:00.363Z,5.8
2023-02-04T02:20:00.367Z,5.2
2023-02-04T02:25:00.359Z,5.2
2023-02-04T02:30:00.437Z,6.3
2023-02-04T02:35:00.416Z,6.3
2023-02-04T02:40:00.422Z,6.0
2023-02-04T02:45:00.376Z,6.0
2023-02-04T02:50:00.410Z,4.9
2023-02-04T02:55:00.495Z,4.9
2023-02-04T03:00:00.413Z,5.0
2023-02-04T03:05:00.418Z,5.0
2023-02-04T03:10:00.362Z,4.9
2023-02-04T03:15:00.379Z,4.9
2023-02-04T03:20:00.463Z,5.2
2023-02-04T03:25:00.477Z,5.2
2023-02-04T03:30:00.368Z,5.4
2023-02-04T03:35:00.355Z,5.4
2023-02-04T03:40:00.415Z,4.8
2023-02-04T03:45:00.423Z,4.8
2023-02-04T03:50:00.358Z,5.2
2023-02-04T03:55:00.446Z,5.2
2023-02-04T04:00:00.415Z,4.9
2023-02-04T04:05:00.364Z,4.9
2023-02-04T04:10:00.453Z,4.6
2023-02-04T04:15:00.374Z,4.6
2023-02-04T04:20:00.382Z,4.8
2023-02-04T04:25:00.361Z,4.8
2023-02-04T04:30:00.412Z,4.0
2023-02-04T04:35:00.442Z,4.0
2023-02-04T04:40:00.383Z,3.0
2023-02-04T04:45:00.348Z,3.0
2023-02-04T04:50:00.455Z,3.1
2023-02-04T04:55:00.349Z,3.1
2023-02-04T05:00:00.554Z,2.8
2023-02-04T05:05:00.575Z,2.8
2023-02-04T05:10:00.386Z,3.1
2023-02-04T05:15:00.372Z,3.1
2023-02-04T05:20:00.430Z,3.1
2023-02-04T05:25:00.366Z,3.1
2023-02-04T05:30:00.417Z,2.9
2023-02-04T05:35:00.355Z,2.9
2023-02-04T05:40:00.372Z,2.5
2023-02-04T05:45:00.417Z,2.5
2023-02-04T05:50:00.485Z,2.7
2023-02-04T05:55:00.354Z,2.7
2023-02-04T06:00:00.362Z,2.5
2023-02-04T06:05:00.323Z,2.5
2023-02-04T06:10:00.765Z,2.7
2023-02-04T06:15:00.352Z,2.7
2023-02-04T06:20:00.375Z,2.5
2023-02-04T06:25:00.394Z,2.5
2023-02-04T06:30:00.376Z,1.5
2023-02-04T06:35:00.353Z,1.5
2023-02-04T06:40:00.383Z,0.6
2023-02-04T06:45:00.378Z,0.0
2023-02-04T06:50:00.381Z,0.0
2023-02-04T06:55:00.356Z,0.0
2023-02-04T07:00:00.404Z,0.7
2023-02-04T07:05:00.391Z,0.2
2023-02-04T07:10:00.368Z,0.0
2023-02-04T07:15:00.360Z,0.4
2023-02-04T07:20:00.377Z,0.6
2023-02-04T07:25:00.350Z,1.2
2023-02-04T07:30:00.364Z,0.5
2023-02-04T07:35:00.496Z,0.0
2023-02-04T07:40:00.374Z,1.9
2023-02-04T07:45:00.406Z,2.7
2023-02-04T07:50:00.491Z,1.1
2023-02-04T07:55:00.344Z,0.8
2023-02-04T08:00:00.399Z,2.8
2023-02-04T08:05:00.348Z,2.4
2023-02-04T08:10:00.345Z,1.0
2023-02-04T08:15:00.311Z,3.1
2023-02-04T08:20:00.354Z,2.2
2023-02-04T08:25:00.353Z,4.0
2023-02-04T08:30:00.358Z,1.9
2023-02-04T08:35:00.345Z,5.2
2023-02-04T08:40:00.417Z,2.0
2023-02-04T08:45:00.337Z,3.2
2023-02-04T08:50:00.440Z,5.8
2023-02-04T08:55:00.374Z,3.6
2023-02-04T09:00:00.515Z,3.3
2023-02-04T09:05:00.455Z,4.1
2023-02-04T09:10:00.372Z,5.8
2023-02-04T09:15:00.378Z,3.5
2023-02-04T09:20:00.493Z,4.8
2023-02-04T09:25:00.450Z,4.4
2023-02-04T09:30:00.474Z,6.6
2023-02-04T09:35:00.392Z,5.7
2023-02-04T09:40:00.342Z,5.6
2023-02-04T09:45:00.424Z,5.8
2023-02-04T09:50:00.454Z,7.0
2023-02-04T09:55:00.334Z,7.8
2023-02-04T10:00:00.435Z,4.7
2023-02-04T10:05:00.363Z,6.6
2023-02-04T10:10:00.371Z,8.3
2023-02-04T10:15:00.535Z,6.7
2023-02-04T10:20:00.372Z,7.8
2023-02-04T10:25:00.347Z,6.6
2023-02-04T10:30:00.504Z,5.9
2023-02-04T10:35:00.433Z,8.9
2023-02-04T10:40:00.437Z,7.7
2023-02-04T10:45:00.361Z,7.1
2023-02-04T10:50:00.424Z,8.5
2023-02-04T10:55:00.438Z,9.2
2023-02-04T11:00:00.419Z,6.7
2023-02-04T11:05:00.378Z,6.8
2023-02-04T11:10:00.478Z,7.2
2023-02-04T11:15:00.391Z,8.3
2023-02-04T11:20:00.434Z,7.0
2023-02-04T11:25:00.446Z,8.8
2023-02-04T11:30:00.449Z,4.4
2023-02-04T11:35:00.446Z,5.7
2023-02-04T11:40:00.445Z,5.2
2023-02-04T11:45:00.393Z,5.5
2023-02-04T11:50:00.409Z,5.7
2023-02-04T11:55:00.361Z,3.7
2023-02-04T12:00:00.478Z,4.3
2023-02-04T12:05:00.434Z,9.2
2023-02-04T12:10:00.430Z,5.2
2023-02-04T12:15:00.551Z,4.6
2023-02-04T12:20:00.451Z,6.3
2023-02-04T12:25:00.369Z,5.2
2023-02-04T12:30:00.459Z,3.5
2023-02-04T12:35:00.374Z,5.5
2023-02-04T12:40:00.435Z,4.3
2023-02-04T12:45:00.435Z,5.2
2023-02-04T12:50:00.415Z,3.1
2023-02-04T12:55:00.360Z,4.3
2023-02-04T13:00:00.441Z,5.1
2023-02-04T13:05:00.564Z,3.6
2023-02-04T13:10:00.365Z,6.9
2023-02-04T13:15:00.531Z,6.4
2023-02-04T13:20:00.499Z,7.4
2023-02-04T13:25:03.775Z,4.4
2023-02-04T13:30:00.428Z,6.4
2023-02-04T13:35:00.475Z,6.0
2023-02-04T13:40:00.371Z,6.4
2023-02-04T13:45:00.373Z,8.2
2023-02-04T13:50:00.463Z,6.0
2023-02-04T13:55:00.352Z,3.3
2023-02-04T14:00:00.378Z,4.1
2023-02-04T14:05:00.378Z,3.7
2023-02-04T14:10:00.363Z,4.2
2023-02-04T14:15:00.359Z,5.7
2023-02-04T14:20:00.406Z,4.1
2023-02-04T14:25:00.449Z,2.9
2023-02-04T14:30:00.354Z,3.2
2023-02-04T14:35:00.420Z,1.5
2023-02-04T14:40:00.355Z,3.1
2023-02-04T14:45:00.417Z,1.8
2023-02-04T14:50:00.364Z,2.6
2023-02-04T14:55:00.356Z,5.4
2023-02-04T15:00:00.418Z,5.1
2023-02-04T15:05:00.357Z,3.4
2023-02-04T15:10:00.424Z,2.9
2023-02-04T15:15:00.354Z,4.6
2023-02-04T15:20:00.439Z,4.5
2023-02-04T15:25:00.498Z,4.1
2023-02-04T15:30:00.420Z,4.8
2023-02-04T15:35:00.383Z,2.7
2023-02-04T15:40:00.432Z,3.5
2023-02-04T15:45:00.353Z,4.1
2023-02-04T15:50:00.425Z,3.3
2023-02-04T15:55:00.390Z,4.2
2023-02-04T16:00:00.448Z,4.0
2023-02-04T16:05:00.456Z,2.6
2023-02-04T16:10:00.394Z,2.9
2023-02-04T16:15:00.451Z,2.2
2023-02-04T16:20:00.391Z,1.4
2023-02-04T16:25:00.389Z,0.1
2023-02-04T16:30:00.384Z,0.0
2023-02-04T16:35:00.371Z,0.1
2023-02-04T16:40:00.408Z,0.1
2023-02-04T16:45:00.486Z,0.2
2023-02-04T16:50:00.368Z,0.0
2023-02-04T16:55:00.434Z,0.0
2023-02-04T17:00:00.362Z,0.4
2023-02-04T17:05:00.351Z,0.3
2023-02-04T17:10:00.392Z,0.6
2023-02-04T17:15:00.369Z,0.0
2023-02-04T17:20:00.753Z,0.1
2023-02-04T17:25:00.489Z,0.3
2023-02-04T17:30:00.610Z,0.8
2023-02-04T17:35:00.352Z,1.0
2023-02-04T17:40:00.411Z,1.2
2023-02-04T17:45:00.367Z,1.8
2023-02-04T17:50:00.706Z,1.3
2023-02-04T17:55:00.417Z,1.3
2023-02-04T18:00:00.376Z,2.1
2023-02-04T18:05:00.354Z,2.3
2023-02-04T18:10:00.371Z,2.5
2023-02-04T18:15:00.356Z,1.4
2023-02-04T18:20:00.376Z,0.5
2023-02-04T18:25:00.453Z,1.0
2023-02-04T18:30:00.514Z,1.2
2023-02-04T18:35:00.356Z,1.7
2023-02-04T18:40:00.421Z,3.0
2023-02-04T18:45:00.356Z,3.0
2023-02-04T18:50:00.382Z,3.8
2023-02-04T18:55:00.359Z,3.7
2023-02-04T19:00:00.425Z,3.2
2023-02-04T19:05:13.381Z,3.7
2023-02-04T19:10:00.571Z,3.5
2023-02-04T19:15:00.350Z,3.3
2023-02-04T19:20:00.474Z,2.9
2023-02-04T19:25:00.348Z,3.3
2023-02-04T19:30:00.394Z,4.2
2023-02-04T19:35:00.462Z,4.7
2023-02-04T19:40:00.362Z,5.2
2023-02-04T19:45:00.434Z,3.6
2023-02-04T19:50:00.449Z,3.3
2023-02-04T19:55:00.356Z,4.4
2023-02-04T20:00:00.364Z,3.3
2023-02-04T20:05:00.386Z,1.6
2023-02-04T20:10:00.370Z,3.2
2023-02-04T20:15:00.366Z,3.7
2023-02-04T20:20:00.412Z,2.9
2023-02-04T20:25:00.406Z,3.5
2023-02-04T20:30:00.376Z,3.8
2023-02-04T20:35:00.352Z,3.1
2023-02-04T20:40:00.379Z,0.4
2023-02-04T20:45:00.422Z,0.4
2023-02-04T20:50:00.372Z,0.2
2023-02-04T20:55:00.363Z,0.0
2023-02-04T21:00:00.428Z,0.0
2023-02-04T21:05:00.369Z,0.0
2023-02-04T21:10:00.408Z,0.0
2023-02-04T21:15:00.375Z,0.0
2023-02-04T21:20:00.442Z,0.0
2023-02-04T21:25:00.405Z,0.0
2023-02-04T21:30:00.538Z,0.0
2023-02-04T21:35:00.321Z,0.0
2023-02-04T21:40:00.359Z,0.0
2023-02-04T21:45:00.347Z,0.0
2023-02-04T21:50:00.403Z,0.0
2023-02-04T21:55:00.372Z,0.0
2023-02-04T22:00:00.418Z,0.0
2023-02-04T22:05:00.352Z,0.0
2023-02-04T22:10:00.430Z,0.0
2023-02-04T22:15:00.366Z,0.0
2023-02-04T22:20:00.378Z,0.0
2023-02-04T22:25:00.413Z,0.0
2023-02-04T22:30:00.470Z,0.0
2023-02-04T22:35:00.363Z,0.0
2023-02-04T22:40:00.431Z,0.0
2023-02-04T22:45:00.369Z,0.0
2023-02-04T22:50:00.385Z,0.0
2023-02-04T22:55:00.388Z,0.0
2023-02-04T23:00:00.438Z,0.0
2023-02-04T23:05:00.394Z,0.6
2023-02-04T23:10:00.383Z,0.0
2023-02-04T23:15:00.354Z,0.0
2023-02-04T23:20:00.388Z,0.0
2023-02-04T23:25:00.347Z,0.0
2023-02-04T23:30:00.357Z,0.0
2023-02-04T23:35:00.350Z,0.0
2023-02-04T23:40:00.370Z,0.0
2023-02-04T23:45:00.418Z,0.0
2023-02-04T23:50:00.385Z,0.0
2023-02-04T23:55:00.350Z,0.0
